Time;durP1;ratioP1;P1;durP2;ratioP2;P2;SDS_P1;SDS_P2;PMS_P1;PMS_P2;Temp;Humidity;BMP_temperature;BMP_pressure;BME280_temperature;BME280_humidity;BME280_pressure;Samples;Min_cycle;Max_cycle;Signal;HPM_P1;HPM_P2
2022/04/26 03:36:45;;;;;;;0.10;0.10;;;;;;;;;;5071905;28;20032;-79
2022/04/26 03:39:11;;;;;;;0.20;0.20;;;;;;;;;;5072149;28;20020;-80
2022/04/26 03:41:37;;;;;;;0.10;0.10;;;;;;;;;;5071570;28;20446;-80
2022/04/26 03:44:03;;;;;;;0.10;0.10;;;;;;;;;;5070277;28;20028;-79
2022/04/26 03:46:29;;;;;;;0.10;0.10;;;;;;;;;;5071514;28;20032;-79
2022/04/26 03:48:55;;;;;;;0.20;0.20;;;;;;;;;;5070388;28;20475;-80
2022/04/26 03:51:21;;;;;;;0.10;0.10;;;;;;;;;;5071457;28;20043;-81
2022/04/26 03:53:48;;;;;;;0.10;0.10;;;;;;;;;;5071565;28;20031;-81
2022/04/26 03:56:14;;;;;;;0.10;0.10;;;;;;;;;;5071914;28;20028;-75
2022/04/26 03:58:40;;;;;;;2.42;2.28;;;;;;;;;;5070527;28;20413;-79
2022/04/26 04:01:06;;;;;;;0.17;0.17;;;;;;;;;;5071441;28;20025;-80
2022/04/26 04:03:32;;;;;;;0.20;0.20;;;;;;;;;;5071183;28;20024;-81
2022/04/26 04:05:58;;;;;;;0.20;0.20;;;;;;;;;;5071609;28;20024;-82
2022/04/26 04:08:24;;;;;;;0.10;0.10;;;;;;;;;;5070963;28;20369;-81
2022/04/26 04:10:50;;;;;;;0.20;0.20;;;;;;;;;;5070180;28;20032;-80
2022/04/26 04:13:17;;;;;;;0.10;0.10;;;;;;;;;;5069752;28;20093;-81
2022/04/26 04:15:43;;;;;;;0.10;0.10;;;;;;;;;;5071498;28;20025;-79
2022/04/26 04:20:54;;;;;;;0.20;0.20;;;;;;;;;;5071349;28;20047;-82
2022/04/26 04:23:21;;;;;;;0.10;0.10;;;;;;;;;;5071008;28;20082;-81
2022/04/26 04:25:47;;;;;;;0.10;0.10;;;;;;;;;;5069914;28;20032;-81
2022/04/26 04:28:14;;;;;;;0.10;0.10;;;;;;;;;;5071562;28;20364;-81
2022/04/26 04:30:40;;;;;;;0.20;0.20;;;;;;;;;;5071482;28;20032;-82
2022/04/26 04:33:06;;;;;;;0.10;0.10;;;;;;;;;;5071306;28;20098;-81
2022/04/26 04:35:32;;;;;;;0.10;0.10;;;;;;;;;;5069532;28;20039;-81
2022/04/26 04:37:58;;;;;;;0.20;0.20;;;;;;;;;;5069731;28;20024;-82
2022/04/26 04:40:24;;;;;;;0.10;0.10;;;;;;;;;;5070957;28;20115;-80
2022/04/26 04:42:50;;;;;;;0.10;0.10;;;;;;;;;;5071013;28;20090;-79
2022/04/26 04:45:16;;;;;;;0.10;0.10;;;;;;;;;;5070646;28;20480;-79
2022/04/26 04:47:42;;;;;;;0.10;0.10;;;;;;;;;;5071354;28;20033;-80
2022/04/26 04:50:09;;;;;;;0.10;0.10;;;;;;;;;;5071049;28;20498;-79
2022/04/26 04:52:36;;;;;;;0.10;0.10;;;;;;;;;;5070844;28;20491;-80
2022/04/26 04:55:02;;;;;;;0.13;0.13;;;;;;;;;;5070884;28;20044;-79
2022/04/26 04:57:28;;;;;;;0.10;0.10;;;;;;;;;;5070728;28;20095;-80
2022/04/26 04:59:54;;;;;;;0.10;0.10;;;;;;;;;;5069273;28;20094;-80
2022/04/26 05:02:20;;;;;;;0.20;0.20;;;;;;;;;;5074354;28;20028;-80
2022/04/26 05:04:47;;;;;;;0.10;0.10;;;;;;;;;;5091152;28;20024;-81
2022/04/26 05:07:13;;;;;;;0.10;0.10;;;;;;;;;;5091355;28;20066;-81
2022/04/26 05:09:41;;;;;;;0.17;0.17;;;;;;;;;;5091238;28;20426;-81
2022/04/26 05:12:07;;;;;;;0.20;0.20;;;;;;;;;;5090869;28;20547;-78
2022/04/26 05:14:33;;;;;;;0.10;0.10;;;;;;;;;;5079680;28;20033;-81
2022/04/26 05:16:59;;;;;;;0.10;0.10;;;;;;;;;;5084177;28;20391;-80
2022/04/26 05:19:25;;;;;;;0.10;0.10;;;;;;;;;;5090653;28;20024;-79
2022/04/26 05:21:51;;;;;;;0.20;0.20;;;;;;;;;;5093438;28;20028;-80
2022/04/26 05:27:03;;;;;;;0.20;0.20;;;;;;;;;;5094886;28;20131;-81
2022/04/26 05:29:29;;;;;;;0.10;0.10;;;;;;;;;;5094451;28;20027;-83
2022/04/26 05:31:55;;;;;;;0.10;0.10;;;;;;;;;;5079104;28;20021;-79
2022/04/26 05:34:21;;;;;;;0.10;0.10;;;;;;;;;;5058398;28;20079;-80
2022/04/26 05:36:47;;;;;;;0.20;0.20;;;;;;;;;;5074258;28;20108;-81
2022/04/26 05:39:13;;;;;;;0.10;0.10;;;;;;;;;;5073859;28;20059;-80
2022/04/26 05:41:39;;;;;;;0.10;0.10;;;;;;;;;;5074383;28;20492;-80
2022/04/26 05:44:05;;;;;;;0.10;0.10;;;;;;;;;;5073878;28;20102;-79
2022/04/26 05:46:31;;;;;;;0.10;0.10;;;;;;;;;;5073885;28;20115;-81
2022/04/26 05:48:57;;;;;;;0.10;0.10;;;;;;;;;;5072565;28;20318;-81
2022/04/26 05:51:23;;;;;;;0.10;0.10;;;;;;;;;;5076866;28;20020;-81
2022/04/26 05:53:49;;;;;;;0.10;0.10;;;;;;;;;;5073837;28;20071;-81
2022/04/26 05:56:15;;;;;;;0.10;0.10;;;;;;;;;;5084454;28;20511;-76
2022/04/26 05:58:41;;;;;;;0.10;0.10;;;;;;;;;;5073997;28;20040;-76
2022/04/26 06:01:07;;;;;;;0.10;0.10;;;;;;;;;;5080259;28;20107;-77
2022/04/26 06:03:34;;;;;;;0.10;0.10;;;;;;;;;;5087029;28;20024;-81
2022/04/26 06:06:00;;;;;;;0.20;0.20;;;;;;;;;;5074357;28;20029;-81
2022/04/26 06:08:26;;;;;;;0.10;0.10;;;;;;;;;;5081358;28;20404;-79
2022/04/26 06:10:52;;;;;;;0.10;0.10;;;;;;;;;;5075569;28;20511;-80
2022/04/26 06:13:18;;;;;;;0.10;0.10;;;;;;;;;;5073725;28;20446;-79
2022/04/26 06:15:44;;;;;;;0.10;0.10;;;;;;;;;;5082068;28;20040;-75
2022/04/26 06:18:10;;;;;;;0.10;0.10;;;;;;;;;;5072387;28;20021;-77
2022/04/26 06:20:36;;;;;;;0.10;0.10;;;;;;;;;;5073221;28;20384;-78
2022/04/26 06:23:02;;;;;;;0.10;0.10;;;;;;;;;;5091570;28;20461;-78
2022/04/26 06:25:28;;;;;;;0.10;0.10;;;;;;;;;;5091335;28;20028;-80
2022/04/26 06:27:54;;;;;;;0.17;0.17;;;;;;;;;;5093323;28;20028;-77
2022/04/26 06:30:20;;;;;;;0.10;0.10;;;;;;;;;;5092622;28;20020;-77
2022/04/26 06:32:46;;;;;;;0.13;0.13;;;;;;;;;;5093273;28;20161;-77
2022/04/26 06:35:12;;;;;;;0.10;0.10;;;;;;;;;;5093623;28;20486;-77
2022/04/26 06:37:38;;;;;;;0.10;0.10;;;;;;;;;;5080322;28;20155;-77
2022/04/26 06:40:05;;;;;;;0.10;0.10;;;;;;;;;;5075290;28;20040;-76
2022/04/26 06:42:31;;;;;;;0.10;0.10;;;;;;;;;;5073335;28;20108;-77
2022/04/26 06:44:57;;;;;;;0.13;0.13;;;;;;;;;;5074994;28;20514;-76
2022/04/26 06:47:23;;;;;;;0.20;0.20;;;;;;;;;;5075656;28;20114;-76
2022/04/26 06:49:49;;;;;;;0.20;0.20;;;;;;;;;;5072866;28;20020;-76
2022/04/26 06:52:15;;;;;;;0.10;0.10;;;;;;;;;;5072256;28;20032;-76
2022/04/26 06:54:41;;;;;;;0.10;0.10;;;;;;;;;;5072690;28;20040;-77
2022/04/26 06:57:07;;;;;;;0.10;0.10;;;;;;;;;;5077202;28;20553;-77
2022/04/26 06:59:33;;;;;;;0.10;0.10;;;;;;;;;;5072619;28;20400;-76
2022/04/26 07:01:59;;;;;;;0.20;0.20;;;;;;;;;;5069366;28;20432;-75
2022/04/26 07:04:26;;;;;;;0.10;0.10;;;;;;;;;;5068008;28;20051;-75
2022/04/26 07:06:52;;;;;;;0.15;0.15;;;;;;;;;;5070835;28;20043;-77
2022/04/26 07:09:19;;;;;;;0.10;0.10;;;;;;;;;;5072945;28;20038;-76
2022/04/26 07:11:46;;;;;;;0.10;0.10;;;;;;;;;;5090805;28;20028;-75
2022/04/26 07:14:12;;;;;;;0.20;0.20;;;;;;;;;;5083292;28;20039;-77
2022/04/26 07:16:38;;;;;;;0.20;0.20;;;;;;;;;;5071455;28;20051;-76
2022/04/26 07:19:05;;;;;;;0.20;0.20;;;;;;;;;;5089131;28;20059;-76
2022/04/26 07:21:31;;;;;;;0.13;0.13;;;;;;;;;;5090391;28;20024;-76
2022/04/26 07:23:57;;;;;;;0.10;0.10;;;;;;;;;;5090605;28;20407;-75
2022/04/26 07:26:23;;;;;;;0.10;0.10;;;;;;;;;;5088977;28;20025;-77
2022/04/26 07:28:49;;;;;;;0.10;0.10;;;;;;;;;;5091372;28;20032;-76
2022/04/26 07:31:15;;;;;;;0.10;0.10;;;;;;;;;;5091474;28;20031;-74
2022/04/26 07:36:26;;;;;;;3.80;3.60;;;;;;;;;;5051390;28;20040;-75
2022/04/26 07:38:52;;;;;;;0.10;0.10;;;;;;;;;;5060917;28;20028;-75
2022/04/26 07:41:18;;;;;;;0.10;0.10;;;;;;;;;;5072652;28;20043;-75
2022/04/26 07:43:44;;;;;;;0.10;0.10;;;;;;;;;;5072223;28;20028;-74
2022/04/26 07:46:13;;;;;;;0.10;0.10;;;;;;;;;;5083753;28;20054;-76
2022/04/26 07:48:42;;;;;;;0.10;0.10;;;;;;;;;;5074984;28;20020;-75
2022/04/26 07:51:08;;;;;;;0.10;0.10;;;;;;;;;;5073413;28;20016;-75
2022/04/26 07:53:34;;;;;;;0.10;0.10;;;;;;;;;;5077699;28;20478;-75
2022/04/26 07:56:01;;;;;;;0.13;0.13;;;;;;;;;;5076936;28;20093;-75
2022/04/26 07:58:27;;;;;;;0.10;0.10;;;;;;;;;;5071351;28;20169;-76
2022/04/26 08:00:53;;;;;;;0.10;0.10;;;;;;;;;;5071159;28;20091;-75
2022/04/26 08:03:20;;;;;;;0.10;0.10;;;;;;;;;;5081137;28;20108;-75
2022/04/26 08:05:46;;;;;;;0.10;0.10;;;;;;;;;;5072553;28;20021;-75
2022/04/26 08:08:12;;;;;;;0.20;0.20;;;;;;;;;;5078848;28;20044;-75
2022/04/26 08:10:38;;;;;;;0.10;0.10;;;;;;;;;;5084089;28;20031;-75
2022/04/26 08:13:04;;;;;;;0.10;0.10;;;;;;;;;;5091706;28;20039;-75
2022/04/26 08:15:30;;;;;;;0.10;0.10;;;;;;;;;;5081727;28;20036;-75
2022/04/26 08:17:56;;;;;;;0.10;0.10;;;;;;;;;;5081100;28;20073;-77
2022/04/26 08:20:24;;;;;;;0.15;0.15;;;;;;;;;;5076093;28;20119;-75
2022/04/26 08:22:50;;;;;;;0.20;0.20;;;;;;;;;;5072759;28;20093;-76
2022/04/26 08:28:01;;;;;;;0.10;0.10;;;;;;;;;;5078511;28;20047;-75
2022/04/26 08:30:27;;;;;;;0.10;0.10;;;;;;;;;;5070672;28;20084;-75
2022/04/26 08:32:54;;;;;;;0.10;0.10;;;;;;;;;;5070790;28;20032;-74
2022/04/26 08:35:22;;;;;;;0.20;0.20;;;;;;;;;;5069377;28;20036;-73
2022/04/26 08:37:48;;;;;;;0.10;0.10;;;;;;;;;;5071236;28;20016;-75
2022/04/26 08:40:15;;;;;;;0.10;0.10;;;;;;;;;;5070435;28;20115;-73
2022/04/26 08:42:42;;;;;;;0.10;0.10;;;;;;;;;;5071273;28;20488;-75
2022/04/26 08:45:10;;;;;;;0.20;0.20;;;;;;;;;;5070923;28;20431;-76
2022/04/26 08:53:08;;;;;;;0.20;0.20;;;;;;;;;;5071001;28;20048;-77
2022/04/26 08:55:41;;;;;;;0.10;0.10;;;;;;;;;;5072939;28;20043;-77
2022/04/26 08:58:10;;;;;;;0.10;0.10;;;;;;;;;;5074735;28;20024;-76
2022/04/26 09:00:37;;;;;;;0.10;0.10;;;;;;;;;;5080123;28;20165;-77
2022/04/26 09:03:11;;;;;;;0.13;0.13;;;;;;;;;;5078312;28;20025;-77
2022/04/26 09:05:37;;;;;;;0.20;0.20;;;;;;;;;;5074119;28;20026;-76
2022/04/26 09:08:24;;;;;;;0.20;0.20;;;;;;;;;;5074747;28;20059;-76
2022/04/26 09:10:50;;;;;;;0.13;0.13;;;;;;;;;;5074657;28;20021;-76
2022/04/26 09:13:20;;;;;;;0.10;0.10;;;;;;;;;;5074323;28;20028;-77
2022/04/26 09:15:51;;;;;;;0.10;0.10;;;;;;;;;;5058506;28;20032;-75
2022/04/26 09:18:24;;;;;;;0.20;0.20;;;;;;;;;;5085341;28;20063;-77
2022/04/26 09:20:52;;;;;;;0.20;0.20;;;;;;;;;;5088387;28;20479;-76
2022/04/26 09:23:20;;;;;;;0.10;0.10;;;;;;;;;;5094583;28;20052;-77
2022/04/26 09:25:46;;;;;;;0.10;0.10;;;;;;;;;;5084190;28;20024;-76
2022/04/26 09:28:20;;;;;;;0.10;0.10;;;;;;;;;;5072544;28;20025;-75
2022/04/26 09:30:47;;;;;;;0.10;0.10;;;;;;;;;;5078739;28;20048;-75
2022/04/26 09:33:30;;;;;;;0.10;0.10;;;;;;;;;;5073881;28;20032;-76
2022/04/26 09:36:15;;;;;;;0.20;0.20;;;;;;;;;;5054701;28;20534;-74
2022/04/26 09:38:48;;;;;;;0.15;0.15;;;;;;;;;;5074631;28;20081;-76
2022/04/26 09:41:15;;;;;;;0.10;0.10;;;;;;;;;;5074336;28;20046;-76
2022/04/26 09:43:41;;;;;;;0.10;0.10;;;;;;;;;;5074475;28;20519;-76
2022/04/26 09:46:08;;;;;;;0.10;0.10;;;;;;;;;;5073570;28;20064;-73
2022/04/26 09:48:38;;;;;;;0.10;0.10;;;;;;;;;;5073741;28;20609;-77
2022/04/26 09:51:05;;;;;;;0.10;0.10;;;;;;;;;;5073531;28;20040;-76
2022/04/26 09:53:32;;;;;;;0.10;0.10;;;;;;;;;;5073630;28;20036;-76
2022/04/26 09:55:59;;;;;;;0.10;0.10;;;;;;;;;;5093922;28;20038;-76
2022/04/26 09:58:28;;;;;;;0.10;0.10;;;;;;;;;;5093864;28;20028;-77
2022/04/26 10:00:56;;;;;;;0.10;0.10;;;;;;;;;;5094181;28;20024;-76
2022/04/26 10:03:32;;;;;;;0.10;0.10;;;;;;;;;;5093878;28;20055;-76
2022/04/26 10:06:02;;;;;;;0.10;0.10;;;;;;;;;;5075575;28;20511;-78
2022/04/26 10:08:30;;;;;;;0.10;0.10;;;;;;;;;;5073025;28;20033;-77
2022/04/26 10:10:57;;;;;;;0.10;0.10;;;;;;;;;;5074548;28;20106;-76
2022/04/26 10:13:32;;;;;;;0.10;0.10;;;;;;;;;;5073564;28;20166;-76
2022/04/26 10:16:05;;;;;;;0.17;0.17;;;;;;;;;;5053574;28;20390;-77
2022/04/26 10:18:35;;;;;;;0.10;0.10;;;;;;;;;;5053213;28;20025;-77
2022/04/26 10:21:02;;;;;;;0.10;0.10;;;;;;;;;;5053479;28;20354;-77
2022/04/26 10:23:28;;;;;;;0.10;0.10;;;;;;;;;;5080977;28;20133;-76
2022/04/26 10:26:13;;;;;;;0.10;0.10;;;;;;;;;;5074219;28;20027;-75
2022/04/26 10:28:53;;;;;;;0.10;0.10;;;;;;;;;;5089026;28;20445;-75
2022/04/26 10:31:20;;;;;;;0.10;0.10;;;;;;;;;;5093327;28;20494;-76
2022/04/26 10:33:46;;;;;;;0.10;0.10;;;;;;;;;;5093328;28;20468;-75
2022/04/26 10:36:30;;;;;;;0.10;0.10;;;;;;;;;;5090192;28;20069;-75
2022/04/26 10:39:08;;;;;;;0.13;0.13;;;;;;;;;;5072806;28;20025;-75
2022/04/26 10:41:38;;;;;;;0.10;0.10;;;;;;;;;;5072748;28;20093;-75
2022/04/26 10:44:15;;;;;;;0.10;0.10;;;;;;;;;;5071166;28;20411;-76
2022/04/26 10:46:41;;;;;;;0.10;0.10;;;;;;;;;;5085412;28;20028;-77
2022/04/26 10:49:26;;;;;;;0.10;0.10;;;;;;;;;;5086537;28;20020;-75
2022/04/26 10:51:53;;;;;;;0.10;0.10;;;;;;;;;;5092098;28;20035;-78
2022/04/26 10:54:37;;;;;;;0.20;0.20;;;;;;;;;;5087988;28;20399;-77
2022/04/26 10:57:04;;;;;;;0.10;0.10;;;;;;;;;;5071605;28;20028;-77
2022/04/26 10:59:30;;;;;;;0.10;0.10;;;;;;;;;;5070873;28;20025;-80
2022/04/26 11:01:56;;;;;;;0.10;0.10;;;;;;;;;;5071226;28;20028;-76
2022/04/26 11:04:22;;;;;;;0.10;0.10;;;;;;;;;;5073180;28;20092;-76
2022/04/26 11:06:48;;;;;;;0.10;0.10;;;;;;;;;;5071147;28;20483;-76
2022/04/26 11:09:15;;;;;;;0.10;0.10;;;;;;;;;;5068019;28;20013;-75
2022/04/26 11:11:47;;;;;;;0.10;0.10;;;;;;;;;;5071043;28;20052;-76
2022/04/26 11:14:14;;;;;;;0.20;0.20;;;;;;;;;;5071424;28;20024;-75
2022/04/26 11:17:00;;;;;;;0.10;0.10;;;;;;;;;;5072340;28;20043;-75
2022/04/26 11:19:29;;;;;;;0.20;0.20;;;;;;;;;;5071023;28;20032;-76
2022/04/26 11:21:56;;;;;;;0.10;0.10;;;;;;;;;;5071353;28;20060;-76
2022/04/26 11:29:52;;;;;;;0.13;0.13;;;;;;;;;;5076327;28;20043;-77
2022/04/26 11:32:28;;;;;;;0.20;0.20;;;;;;;;;;5077527;28;20111;-77
2022/04/26 11:34:55;;;;;;;0.20;0.20;;;;;;;;;;5077828;28;20400;-77
2022/04/26 11:37:21;;;;;;;0.10;0.10;;;;;;;;;;5070063;28;20551;-77
2022/04/26 11:39:47;;;;;;;0.10;0.10;;;;;;;;;;5071628;28;20024;-77
2022/04/26 11:42:13;;;;;;;0.20;0.20;;;;;;;;;;5070928;28;20402;-77
2022/04/26 11:44:56;;;;;;;0.10;0.10;;;;;;;;;;5071728;28;20032;-77
2022/04/26 11:47:23;;;;;;;0.13;0.13;;;;;;;;;;5071624;28;20029;-77
2022/04/26 11:49:49;;;;;;;0.10;0.10;;;;;;;;;;5071689;28;20025;-76
2022/04/26 11:52:22;;;;;;;0.10;0.10;;;;;;;;;;5071900;28;20498;-77
2022/04/26 11:54:48;;;;;;;0.10;0.10;;;;;;;;;;5071682;28;20036;-76
2022/04/26 11:57:21;;;;;;;0.10;0.10;;;;;;;;;;5070051;28;20384;-77
2022/04/26 11:59:48;;;;;;;0.10;0.10;;;;;;;;;;5071074;28;20036;-76
2022/04/26 12:02:14;;;;;;;0.10;0.10;;;;;;;;;;5071708;28;20017;-77
2022/04/26 12:04:41;;;;;;;0.10;0.10;;;;;;;;;;5071758;28;20024;-77
2022/04/26 12:07:09;;;;;;;0.20;0.20;;;;;;;;;;5088247;28;20032;-76
2022/04/26 12:09:36;;;;;;;0.10;0.10;;;;;;;;;;5091538;28;20494;-77
2022/04/26 12:12:03;;;;;;;0.10;0.10;;;;;;;;;;5089391;28;20032;-78
2022/04/26 12:14:29;;;;;;;0.10;0.10;;;;;;;;;;5091227;28;20035;-77
2022/04/26 12:16:55;;;;;;;0.10;0.10;;;;;;;;;;5091555;28;20123;-77
2022/04/26 12:19:33;;;;;;;0.10;0.10;;;;;;;;;;5077109;28;20028;-77
2022/04/26 12:22:00;;;;;;;0.10;0.10;;;;;;;;;;5071036;28;20025;-77
2022/04/26 12:24:29;;;;;;;0.40;0.40;;;;;;;;;;5070564;28;20024;-77
2022/04/26 12:27:00;;;;;;;0.10;0.10;;;;;;;;;;5071624;28;20112;-77
2022/04/26 12:29:38;;;;;;;0.20;0.20;;;;;;;;;;5071816;28;20044;-76
2022/04/26 12:32:05;;;;;;;0.10;0.10;;;;;;;;;;5070873;28;20033;-77
2022/04/26 12:34:32;;;;;;;0.10;0.10;;;;;;;;;;5070934;28;20054;-77
2022/04/26 12:36:58;;;;;;;0.10;0.10;;;;;;;;;;5071240;28;20028;-76
2022/04/26 12:39:26;;;;;;;0.10;0.10;;;;;;;;;;5070864;28;20024;-77
2022/04/26 12:41:55;;;;;;;0.10;0.10;;;;;;;;;;5071579;28;20078;-77
2022/04/26 12:44:21;;;;;;;0.20;0.20;;;;;;;;;;5086385;28;20048;-77
2022/04/26 12:52:30;;;;;;;0.10;0.10;;;;;;;;;;5090934;28;19949;-77
2022/04/26 12:54:56;;;;;;;0.10;0.10;;;;;;;;;;5090373;28;20533;-77
2022/04/26 12:57:22;;;;;;;0.13;0.13;;;;;;;;;;5069881;28;20029;-77
2022/04/26 12:59:48;;;;;;;0.10;0.10;;;;;;;;;;5070828;28;20055;-77
2022/04/26 13:02:16;;;;;;;0.10;0.10;;;;;;;;;;5070540;28;20056;-77
2022/04/26 13:04:42;;;;;;;0.10;0.10;;;;;;;;;;5071014;28;20100;-77
2022/04/26 13:07:08;;;;;;;0.20;0.20;;;;;;;;;;5071085;28;20075;-77
2022/04/26 13:09:33;;;;;;;0.10;0.10;;;;;;;;;;5070583;28;20777;-77
2022/04/26 13:11:59;;;;;;;0.10;0.10;;;;;;;;;;5070879;28;20025;-77
2022/04/26 13:14:27;;;;;;;0.10;0.10;;;;;;;;;;5070542;28;20055;-77
2022/04/26 13:16:53;;;;;;;0.10;0.10;;;;;;;;;;5083014;28;20488;-77
2022/04/26 13:19:19;;;;;;;0.10;0.10;;;;;;;;;;5088131;28;20418;-77
2022/04/26 13:21:45;;;;;;;0.20;0.20;;;;;;;;;;5086072;28;20093;-76
2022/04/26 13:24:11;;;;;;;0.10;0.10;;;;;;;;;;5069466;28;20024;-77
2022/04/26 13:26:38;;;;;;;0.10;0.10;;;;;;;;;;5070628;28;20481;-77
2022/04/26 13:29:05;;;;;;;0.10;0.10;;;;;;;;;;5070157;28;20184;-77
2022/04/26 13:31:31;;;;;;;0.10;0.10;;;;;;;;;;5070221;28;20107;-77
2022/04/26 13:33:57;;;;;;;0.10;0.10;;;;;;;;;;5088523;28;20089;-77
2022/04/26 13:36:26;;;;;;;0.10;0.10;;;;;;;;;;5090474;28;20032;-77
2022/04/26 13:38:52;;;;;;;0.10;0.10;;;;;;;;;;5084723;28;20495;-77
2022/04/26 13:41:18;;;;;;;0.10;0.10;;;;;;;;;;5076074;28;20063;-77
2022/04/26 13:43:44;;;;;;;0.10;0.10;;;;;;;;;;5075096;28;20033;-77
2022/04/26 13:46:11;;;;;;;0.10;0.10;;;;;;;;;;5083884;28;20082;-77
2022/04/26 13:48:36;;;;;;;0.10;0.10;;;;;;;;;;5072588;28;20062;-77
2022/04/26 13:51:02;;;;;;;0.17;0.17;;;;;;;;;;5072291;28;20052;-76
2022/04/26 13:53:30;;;;;;;0.10;0.10;;;;;;;;;;5072362;28;20021;-77
2022/04/26 13:55:56;;;;;;;0.10;0.10;;;;;;;;;;5073800;28;20028;-77
2022/04/26 13:58:23;;;;;;;0.10;0.10;;;;;;;;;;5073580;28;20055;-76
2022/04/26 14:00:48;;;;;;;0.10;0.10;;;;;;;;;;5073885;28;20365;-76
2022/04/26 14:03:14;;;;;;;0.10;0.10;;;;;;;;;;5071836;28;20027;-76
2022/04/26 14:05:41;;;;;;;0.20;0.20;;;;;;;;;;5074006;28;20108;-77
2022/04/26 14:08:07;;;;;;;0.10;0.10;;;;;;;;;;5073779;28;20025;-77
2022/04/26 14:10:33;;;;;;;0.10;0.10;;;;;;;;;;5079706;28;20042;-76
2022/04/26 14:12:59;;;;;;;0.10;0.10;;;;;;;;;;5093798;28;20476;-76
2022/04/26 14:23:38;;;;;;;0.10;0.10;;;;;;;;;;5073264;28;20560;-76
2022/04/26 14:26:06;;;;;;;0.10;0.10;;;;;;;;;;5073392;28;20060;-75
2022/04/26 14:28:32;;;;;;;0.10;0.10;;;;;;;;;;5073108;28;20016;-76
2022/04/26 14:30:58;;;;;;;0.10;0.10;;;;;;;;;;5073284;28;20376;-77
2022/04/26 14:33:24;;;;;;;0.13;0.13;;;;;;;;;;5082139;28;20035;-76
2022/04/26 14:35:51;;;;;;;0.10;0.10;;;;;;;;;;5093327;28;20032;-77
2022/04/26 14:38:17;;;;;;;0.10;0.10;;;;;;;;;;5093098;28;20047;-76
2022/04/26 14:40:44;;;;;;;0.10;0.10;;;;;;;;;;5092341;28;20472;-76
2022/04/26 14:43:10;;;;;;;0.10;0.10;;;;;;;;;;5093432;28;20027;-76
2022/04/26 14:45:42;;;;;;;0.10;0.10;;;;;;;;;;5092851;28;20040;-76
2022/04/26 14:48:09;;;;;;;0.10;0.10;;;;;;;;;;5088428;28;20032;-77
2022/04/26 14:50:37;;;;;;;0.10;0.10;;;;;;;;;;5087900;28;20119;-77
2022/04/26 14:53:03;;;;;;;0.10;0.10;;;;;;;;;;5090839;28;20028;-76
2022/04/26 14:55:29;;;;;;;0.10;0.10;;;;;;;;;;5091681;28;20059;-76
2022/04/26 14:57:55;;;;;;;0.10;0.10;;;;;;;;;;5091720;28;20016;-75
2022/04/26 15:00:21;;;;;;;0.10;0.10;;;;;;;;;;5092710;28;20082;-77
2022/04/26 15:02:47;;;;;;;0.10;0.10;;;;;;;;;;5092804;28;20422;-78
2022/04/26 15:05:13;;;;;;;0.10;0.10;;;;;;;;;;5093237;28;20031;-76
2022/04/26 15:10:25;;;;;;;0.10;0.10;;;;;;;;;;5089933;28;20074;-75
2022/04/26 15:18:21;;;;;;;0.10;0.10;;;;;;;;;;5074863;28;20039;-76
2022/04/26 15:20:52;;;;;;;0.10;0.10;;;;;;;;;;5073665;28;20028;-76
2022/04/26 15:23:18;;;;;;;0.10;0.10;;;;;;;;;;5070742;28;20078;-76
2022/04/26 15:25:55;;;;;;;0.10;0.10;;;;;;;;;;5072093;28;20039;-76
2022/04/26 15:28:21;;;;;;;0.10;0.10;;;;;;;;;;5071871;28;20020;-76
2022/04/26 15:30:48;;;;;;;0.10;0.10;;;;;;;;;;5073283;28;20048;-77
2022/04/26 15:33:15;;;;;;;0.13;0.13;;;;;;;;;;5072234;28;20399;-76
2022/04/26 15:35:42;;;;;;;0.10;0.10;;;;;;;;;;5065503;28;20040;-77
2022/04/26 15:38:10;;;;;;;0.10;0.10;;;;;;;;;;5069558;28;20067;-75
2022/04/26 15:40:36;;;;;;;0.10;0.10;;;;;;;;;;5072099;28;20063;-75
2022/04/26 15:43:04;;;;;;;0.10;0.10;;;;;;;;;;5071111;28;20060;-73
2022/04/26 15:45:30;;;;;;;0.10;0.10;;;;;;;;;;5080783;28;20036;-73
2022/04/26 15:47:56;;;;;;;0.10;0.10;;;;;;;;;;5092060;28;20099;-76
2022/04/26 15:50:23;;;;;;;0.10;0.10;;;;;;;;;;5091712;28;20063;-72
2022/04/26 15:52:50;;;;;;;0.10;0.10;;;;;;;;;;5072750;28;20495;-75
2022/04/26 15:55:16;;;;;;;0.00;0.00;;;;;;;;;;5072261;28;20040;-72
2022/04/26 15:57:44;;;;;;;0.10;0.10;;;;;;;;;;5077679;28;20099;-75
2022/04/26 16:00:11;;;;;;;0.10;0.10;;;;;;;;;;5092084;28;20020;-76
2022/04/26 16:02:39;;;;;;;0.10;0.10;;;;;;;;;;5089389;28;20483;-76
2022/04/26 16:05:05;;;;;;;0.10;0.10;;;;;;;;;;5082023;28;20036;-74
2022/04/26 16:07:31;;;;;;;0.10;0.10;;;;;;;;;;5080843;28;20058;-77
2022/04/26 16:20:55;;;;;;;0.10;0.10;;;;;;;;;;5074875;28;20046;-78
2022/04/26 16:23:21;;;;;;;0.10;0.10;;;;;;;;;;5086807;28;20099;-76
2022/04/26 16:25:47;;;;;;;0.10;0.10;;;;;;;;;;5051327;28;20028;-76
2022/04/26 16:28:14;;;;;;;0.10;0.10;;;;;;;;;;5075107;28;20031;-77
2022/04/26 16:30:41;;;;;;;0.10;0.10;;;;;;;;;;5074166;28;20036;-76
2022/04/26 16:33:08;;;;;;;0.10;0.10;;;;;;;;;;5071753;28;20500;-75
2022/04/26 16:35:34;;;;;;;0.10;0.10;;;;;;;;;;5080433;28;20032;-76
2022/04/26 16:38:01;;;;;;;0.10;0.10;;;;;;;;;;5088841;28;20027;-76
2022/04/26 16:40:28;;;;;;;0.10;0.10;;;;;;;;;;5074033;28;20024;-76
2022/04/26 16:42:57;;;;;;;0.10;0.10;;;;;;;;;;5071062;28;20021;-76
2022/04/26 16:45:24;;;;;;;0.10;0.10;;;;;;;;;;5080480;28;20093;-77
2022/04/26 16:47:52;;;;;;;0.10;0.10;;;;;;;;;;5084587;28;20115;-76
2022/04/26 16:50:19;;;;;;;0.10;0.10;;;;;;;;;;5084084;28;20024;-76
2022/04/26 16:52:46;;;;;;;0.10;0.10;;;;;;;;;;5075161;28;20165;-77
2022/04/26 16:55:12;;;;;;;0.10;0.10;;;;;;;;;;5078351;28;20036;-76
2022/04/26 16:57:38;;;;;;;0.10;0.10;;;;;;;;;;5070677;28;20025;-76
2022/04/26 17:00:05;;;;;;;0.10;0.10;;;;;;;;;;5071014;28;20315;-77
2022/04/26 17:02:32;;;;;;;0.10;0.10;;;;;;;;;;5070063;28;20024;-77
2022/04/26 17:04:58;;;;;;;0.10;0.10;;;;;;;;;;5070715;28;20487;-77
2022/04/26 17:07:25;;;;;;;0.10;0.10;;;;;;;;;;5070689;28;20028;-77
2022/04/26 17:09:51;;;;;;;0.10;0.10;;;;;;;;;;5070749;28;20491;-77
2022/04/26 17:12:18;;;;;;;0.10;0.10;;;;;;;;;;5070541;28;20082;-77
2022/04/26 17:14:44;;;;;;;0.10;0.10;;;;;;;;;;5074351;28;20032;-76
2022/04/26 17:17:15;;;;;;;0.10;0.10;;;;;;;;;;5092504;28;20059;-77
2022/04/26 17:19:41;;;;;;;0.10;0.10;;;;;;;;;;5076092;28;20379;-78
2022/04/26 17:22:08;;;;;;;0.10;0.10;;;;;;;;;;5073425;28;20107;-78
2022/04/26 17:27:19;;;;;;;0.10;0.10;;;;;;;;;;5074167;28;20070;-77
2022/04/26 17:29:45;;;;;;;0.10;0.10;;;;;;;;;;5074335;28;20055;-76
2022/04/26 17:32:16;;;;;;;0.10;0.10;;;;;;;;;;5075461;28;20032;-78
2022/04/26 17:34:42;;;;;;;0.10;0.10;;;;;;;;;;5073390;28;20044;-82
2022/04/26 17:37:08;;;;;;;0.10;0.10;;;;;;;;;;5075746;28;20031;-78
2022/04/26 17:39:34;;;;;;;0.10;0.10;;;;;;;;;;5073409;28;20041;-79
2022/04/26 17:42:00;;;;;;;0.10;0.10;;;;;;;;;;5074152;28;20025;-79
2022/04/26 17:44:26;;;;;;;0.10;0.10;;;;;;;;;;5072579;28;20082;-77
2022/04/26 17:46:52;;;;;;;0.10;0.10;;;;;;;;;;5079432;28;20066;-77
2022/04/26 17:49:18;;;;;;;0.10;0.10;;;;;;;;;;5073468;28;20031;-78
2022/04/26 17:51:44;;;;;;;0.10;0.10;;;;;;;;;;5073247;28;20480;-78
2022/04/26 17:56:55;;;;;;;0.10;0.10;;;;;;;;;;5072105;28;20043;-78
2022/04/26 17:59:21;;;;;;;0.10;0.10;;;;;;;;;;5073310;28;20032;-80
2022/04/26 18:01:47;;;;;;;0.10;0.10;;;;;;;;;;5077968;28;20021;-79
2022/04/26 18:04:13;;;;;;;0.10;0.10;;;;;;;;;;5071002;28;20377;-79
2022/04/26 18:06:39;;;;;;;0.10;0.10;;;;;;;;;;5076394;28;20044;-78
2022/04/26 18:09:05;;;;;;;0.10;0.10;;;;;;;;;;5073018;28;20055;-79
2022/04/26 18:11:32;;;;;;;0.10;0.10;;;;;;;;;;5073042;28;20101;-77
2022/04/26 18:13:58;;;;;;;0.10;0.10;;;;;;;;;;5072659;28;20030;-78
2022/04/26 18:16:24;;;;;;;0.10;0.10;;;;;;;;;;5072824;28;20036;-79
2022/04/26 18:18:50;;;;;;;0.10;0.10;;;;;;;;;;5073142;28;20020;-78
2022/04/26 18:21:17;;;;;;;0.10;0.10;;;;;;;;;;5070997;28;20518;-78
2022/04/26 18:23:44;;;;;;;0.10;0.10;;;;;;;;;;5072018;28;20025;-79
2022/04/26 18:26:13;;;;;;;0.10;0.10;;;;;;;;;;5072762;28;20020;-77
2022/04/26 18:28:58;;;;;;;0.10;0.10;;;;;;;;;;5072234;28;20035;-79
2022/04/26 18:31:32;;;;;;;0.10;0.10;;;;;;;;;;5072313;28;20096;-78
2022/04/26 18:33:58;;;;;;;0.10;0.10;;;;;;;;;;5072657;28;20020;-78
2022/04/26 18:36:24;;;;;;;0.10;0.10;;;;;;;;;;5072307;28;20028;-79
2022/04/26 18:38:52;;;;;;;0.10;0.10;;;;;;;;;;5073398;28;20028;-80
2022/04/26 18:41:18;;;;;;;0.10;0.10;;;;;;;;;;5071103;28;20033;-78
2022/04/26 18:43:45;;;;;;;0.10;0.10;;;;;;;;;;5072114;28;20032;-78
2022/04/26 18:46:12;;;;;;;0.20;0.20;;;;;;;;;;5072626;28;20024;-78
2022/04/26 18:48:39;;;;;;;0.10;0.10;;;;;;;;;;5071095;28;20035;-79
2022/04/26 18:51:05;;;;;;;0.10;0.10;;;;;;;;;;5071946;28;20025;-78
2022/04/26 18:53:32;;;;;;;0.10;0.10;;;;;;;;;;5071355;28;20039;-79
2022/04/26 18:55:58;;;;;;;0.10;0.10;;;;;;;;;;5070591;28;20068;-79
2022/04/26 18:58:24;;;;;;;0.10;0.10;;;;;;;;;;5071515;28;20115;-78
2022/04/26 19:00:54;;;;;;;0.10;0.10;;;;;;;;;;5071942;28;20024;-80
2022/04/26 19:03:20;;;;;;;0.10;0.10;;;;;;;;;;5070171;28;20050;-79
2022/04/26 19:05:46;;;;;;;0.10;0.10;;;;;;;;;;5071770;28;20026;-80
2022/04/26 19:08:16;;;;;;;0.10;0.10;;;;;;;;;;5070883;28;20078;-78
2022/04/26 19:13:27;;;;;;;0.10;0.10;;;;;;;;;;5070723;28;20028;-79
2022/04/26 19:15:55;;;;;;;0.10;0.10;;;;;;;;;;5068943;28;20120;-80
2022/04/26 19:18:22;;;;;;;0.10;0.10;;;;;;;;;;5070890;28;20093;-79
2022/04/26 19:20:48;;;;;;;0.10;0.10;;;;;;;;;;5070366;28;20115;-80
2022/04/26 19:23:14;;;;;;;0.00;0.00;;;;;;;;;;5068090;28;20056;-78